Time;durP1;ratioP1;P1;durP2;ratioP2;P2;SDS_P1;SDS_P2;PMS_P1;PMS_P2;Temp;Humidity;BMP_temperature;BMP_pressure;BME280_temperature;BME280_humidity;BME280_pressure;Samples;Min_cycle;Max_cycle;Signal;HPM_P1;HPM_P2
2021/04/28 00:01:30;;;;;;;22.50;10.52;;;;;;;6.52;46.42;100571.69;5103608;28;20050;-63
2021/04/28 00:03:55;;;;;;;22.95;11.10;;;;;;;6.46;46.90;100571.59;5101361;28;20024;-63
2021/04/28 00:06:21;;;;;;;22.80;10.80;;;;;;;6.38;47.27;100567.97;5104522;28;20102;-63
2021/04/28 00:08:46;;;;;;;23.42;11.00;;;;;;;6.25;46.98;100562.50;5101355;28;20107;-63
2021/04/28 00:11:11;;;;;;;23.27;10.63;;;;;;;6.26;47.80;100559.00;5103157;28;20055;-63
2021/04/28 00:13:37;;;;;;;23.27;10.50;;;;;;;6.14;47.31;100565.78;5102528;28;20032;-63
2021/04/28 00:16:02;;;;;;;24.02;11.00;;;;;;;6.18;47.43;100565.84;5101841;28;20031;-63
2021/04/28 00:18:28;;;;;;;23.30;11.00;;;;;;;6.15;48.11;100557.06;5103760;28;20479;-61
2021/04/28 00:20:53;;;;;;;23.45;11.25;;;;;;;6.06;48.32;100552.53;5100873;28;20153;-63
2021/04/28 00:23:19;;;;;;;23.23;11.52;;;;;;;6.09;48.03;100552.59;5104160;28;20070;-63
2021/04/28 00:25:45;;;;;;;22.17;10.82;;;;;;;6.11;48.50;100556.09;5101466;28;20109;-61
2021/04/28 00:28:11;;;;;;;22.40;10.80;;;;;;;6.09;49.50;100558.72;5102822;28;20024;-61
2021/04/28 00:30:38;;;;;;;23.17;11.30;;;;;;;6.06;49.06;100548.16;5103170;28;20034;-60
2021/04/28 00:33:03;;;;;;;22.30;11.10;;;;;;;6.02;49.02;100553.31;5105541;28;20085;-59
2021/04/28 00:35:29;;;;;;;23.77;11.93;;;;;;;6.01;49.26;100548.94;5107544;28;20028;-60
2021/04/28 00:37:54;;;;;;;23.48;11.75;;;;;;;6.07;49.85;100551.66;5104506;28;20038;-60
2021/04/28 00:40:28;;;;;;;24.63;11.35;;;;;;;5.97;49.47;100541.81;5107776;28;20023;-61
2021/04/28 00:42:54;;;;;;;22.70;11.23;;;;;;;5.90;49.39;100539.09;5100481;28;20031;-61
2021/04/28 00:45:21;;;;;;;22.80;11.70;;;;;;;5.89;49.58;100542.56;5107855;28;20034;-60
2021/04/28 00:47:46;;;;;;;22.95;11.52;;;;;;;5.75;49.30;100533.53;5104768;28;20020;-61
2021/04/28 00:50:16;;;;;;;27.98;12.70;;;;;;;5.97;49.37;100544.44;5106421;28;20093;-61
2021/04/28 00:52:42;;;;;;;26.02;12.68;;;;;;;5.96;49.22;100526.94;5105341;28;20118;-59
2021/04/28 00:55:08;;;;;;;23.58;11.93;;;;;;;5.69;49.14;100533.44;5105694;28;20089;-60
2021/04/28 00:57:33;;;;;;;25.08;12.65;;;;;;;5.63;49.00;100531.56;5106240;28;20049;-61
2021/04/28 00:59:59;;;;;;;25.67;12.18;;;;;;;5.56;49.34;100532.28;5103970;28;20015;-61
2021/04/28 01:02:25;;;;;;;23.83;11.90;;;;;;;5.42;50.11;100521.56;5103971;28;20031;-60
2021/04/28 01:04:51;;;;;;;24.35;12.57;;;;;;;5.39;50.15;100518.88;5099834;28;20076;-59
2021/04/28 01:07:18;;;;;;;24.70;12.82;;;;;;;5.44;50.35;100521.59;5106740;28;20034;-60
2021/04/28 01:09:44;;;;;;;23.70;12.05;;;;;;;5.49;50.23;100510.34;5104449;28;20474;-61
2021/04/28 01:12:10;;;;;;;26.27;13.07;;;;;;;5.35;51.31;100514.41;5105280;28;20047;-60
2021/04/28 01:14:36;;;;;;;24.65;13.00;;;;;;;5.47;50.64;100516.41;5105607;28;20024;-59
2021/04/28 01:17:03;;;;;;;24.38;13.38;;;;;;;5.33;51.48;100514.38;5104256;28;20161;-60
2021/04/28 01:19:30;;;;;;;26.45;14.02;;;;;;;5.24;51.63;100514.19;5106454;28;20024;-59
2021/04/28 01:21:55;;;;;;;24.55;13.25;;;;;;;5.22;52.20;100505.41;5103671;28;20035;-60
2021/04/28 01:24:22;;;;;;;25.02;12.90;;;;;;;5.24;51.63;100504.59;5099336;28;20467;-60
2021/04/28 01:26:53;;;;;;;24.77;13.32;;;;;;;5.35;50.96;100504.81;5106307;28;20031;-59
2021/04/28 01:29:23;;;;;;;24.63;13.63;;;;;;;5.32;51.65;100503.88;5103605;28;20077;-60
2021/04/28 01:31:49;;;;;;;24.85;13.70;;;;;;;5.25;52.13;100500.22;5106327;28;20115;-59
2021/04/28 01:34:15;;;;;;;24.40;12.95;;;;;;;5.21;52.21;100499.28;5104041;28;20031;-60
2021/04/28 01:36:43;;;;;;;24.35;13.13;;;;;;;5.23;51.32;100497.56;5105507;28;20032;-60
2021/04/28 01:39:10;;;;;;;27.30;13.82;;;;;;;5.14;52.31;100499.13;5104738;27;20023;-61
2021/04/28 01:41:39;;;;;;;24.77;13.23;;;;;;;5.06;52.55;100499.84;5104468;28;20510;-61
2021/04/28 01:44:06;;;;;;;25.08;13.93;;;;;;;4.94;52.81;100503.94;5104717;28;20035;-60
2021/04/28 01:46:31;;;;;;;27.27;13.75;;;;;;;4.88;53.22;100495.09;5103561;28;20028;-60
2021/04/28 01:48:57;;;;;;;24.10;12.82;;;;;;;4.91;53.20;100493.38;5106510;28;20377;-59
2021/04/28 01:51:23;;;;;;;25.17;13.05;;;;;;;4.92;53.11;100489.91;5103233;28;20101;-60
2021/04/28 01:53:49;;;;;;;23.52;13.13;;;;;;;4.87;53.32;100501.16;5105862;28;20063;-60
2021/04/28 01:56:15;;;;;;;24.25;13.23;;;;;;;4.81;53.41;100490.56;5103632;28;20028;-60
2021/04/28 01:58:42;;;;;;;24.30;13.73;;;;;;;4.79;53.77;100494.00;5104853;28;20032;-60
2021/04/28 02:01:09;;;;;;;24.73;13.52;;;;;;;4.79;53.34;100494.00;5104494;28;20028;-60
2021/04/28 02:03:34;;;;;;;25.27;13.25;;;;;;;4.74;52.99;100491.28;5103579;28;20379;-60
2021/04/28 02:06:01;;;;;;;25.45;13.90;;;;;;;4.62;53.75;100486.66;5105647;28;20039;-60
2021/04/28 02:08:27;;;;;;;25.65;13.88;;;;;;;4.52;54.49;100485.53;5102643;28;20486;-59
2021/04/28 02:10:53;;;;;;;25.80;14.20;;;;;;;4.52;54.57;100480.31;5105669;28;20101;-60
2021/04/28 02:13:21;;;;;;;26.83;14.57;;;;;;;4.43;54.41;100482.72;5103072;28;20032;-60
2021/04/28 02:15:47;;;;;;;24.85;13.77;;;;;;;4.47;54.79;100474.09;5105028;28;20053;-59
2021/04/28 02:18:14;;;;;;;26.20;14.75;;;;;;;4.52;54.01;100479.44;5103654;28;20410;-59
2021/04/28 02:20:40;;;;;;;25.75;14.55;;;;;;;4.44;54.00;100476.66;5104164;28;20020;-59
2021/04/28 02:23:06;;;;;;;25.67;14.00;;;;;;;4.42;54.57;100472.22;5104281;28;20490;-60
2021/04/28 02:25:32;;;;;;;26.17;14.30;;;;;;;4.39;54.58;100473.03;5102960;28;20085;-60
2021/04/28 02:27:58;;;;;;;26.05;14.40;;;;;;;4.41;55.06;100471.31;5105569;28;20023;-60
2021/04/28 02:30:25;;;;;;;25.63;14.00;;;;;;;4.38;55.06;100470.38;5102048;28;20073;-59
2021/04/28 02:32:52;;;;;;;27.02;14.27;;;;;;;4.42;55.58;100465.25;5105278;28;20443;-60
2021/04/28 02:35:20;;;;;;;26.20;14.43;;;;;;;4.43;54.92;100471.38;5102925;28;20111;-60
2021/04/28 02:37:48;;;;;;;25.17;13.98;;;;;;;4.53;53.76;100469.00;5104436;28;20027;-60
2021/04/28 02:40:16;;;;;;;26.00;14.48;;;;;;;4.46;54.88;100461.84;5102853;28;20026;-59
2021/04/28 02:42:46;;;;;;;25.10;14.32;;;;;;;4.47;54.67;100466.25;5104131;28;20111;-60
2021/04/28 02:45:15;;;;;;;26.08;14.20;;;;;;;4.45;54.56;100461.81;5103287;28;20027;-59
2021/04/28 02:47:42;;;;;;;26.85;14.23;;;;;;;4.41;54.60;100460.84;5103607;28;20618;-60
2021/04/28 02:50:10;;;;;;;25.77;14.65;;;;;;;4.32;54.69;100453.66;5103814;28;20466;-60
2021/04/28 02:52:36;;;;;;;26.05;14.55;;;;;;;4.34;54.92;100453.72;5103267;28;20043;-60
2021/04/28 02:55:02;;;;;;;26.88;14.50;;;;;;;4.29;54.99;100448.38;5104654;28;20384;-59
2021/04/28 02:57:28;;;;;;;28.05;15.10;;;;;;;4.26;54.82;100448.28;5101845;28;20028;-60
2021/04/28 02:59:55;;;;;;;27.67;15.52;;;;;;;4.22;55.47;100458.66;5105170;28;20030;-61
2021/04/28 03:02:21;;;;;;;26.13;15.48;;;;;;;4.21;55.79;100449.03;5101843;28;20036;-62
2021/04/28 03:04:47;;;;;;;26.35;14.65;;;;;;;4.29;54.92;100445.75;5104164;28;20127;-63
2021/04/28 03:07:14;;;;;;;26.73;15.05;;;;;;;4.29;55.52;100445.75;5103027;28;20491;-62
2021/04/28 03:09:40;;;;;;;25.77;14.60;;;;;;;4.12;55.33;100444.47;5103499;28;20024;-62
2021/04/28 03:12:07;;;;;;;26.92;14.98;;;;;;;4.01;56.22;100438.97;5103456;28;20048;-62
2021/04/28 03:14:32;;;;;;;27.35;16.30;;;;;;;3.86;57.46;100438.59;5102207;28;20462;-62
2021/04/28 03:16:58;;;;;;;28.00;15.93;;;;;;;3.73;57.78;100443.53;5104780;28;20020;-63
2021/04/28 03:19:24;;;;;;;26.92;15.32;;;;;;;3.69;57.69;100436.44;5101724;28;20016;-62
2021/04/28 03:21:50;;;;;;;26.67;15.80;;;;;;;3.64;57.74;100436.31;5104453;28;20020;-62
2021/04/28 03:24:18;;;;;;;29.23;16.05;;;;;;;3.67;58.06;100438.13;5102120;28;20098;-59
2021/04/28 03:26:43;;;;;;;28.83;15.90;;;;;;;3.69;57.77;100436.44;5103698;28;20051;-60
2021/04/28 03:29:08;;;;;;;25.38;14.98;;;;;;;3.72;58.01;100436.50;5103121;28;20466;-60
2021/04/28 03:31:34;;;;;;;26.52;15.18;;;;;;;3.68;57.78;100445.13;5102241;28;20111;-60
2021/04/28 03:34:00;;;;;;;28.20;16.02;;;;;;;3.65;58.10;100439.81;5104523;28;20051;-60
2021/04/28 03:36:25;;;;;;;28.58;16.17;;;;;;;3.59;58.06;100434.44;5101016;28;20057;-60
2021/04/28 03:38:52;;;;;;;27.42;15.40;;;;;;;3.66;57.72;100436.38;5102839;28;20051;-61
2021/04/28 03:41:18;;;;;;;29.70;16.10;;;;;;;3.53;58.17;100440.38;5102191;28;20069;-59
2021/04/28 03:43:43;;;;;;;26.95;15.27;;;;;;;3.57;58.17;100443.94;5103382;28;20032;-60
2021/04/28 03:46:09;;;;;;;29.15;16.60;;;;;;;3.49;58.27;100439.44;5102906;28;20024;-60
2021/04/28 03:48:36;;;;;;;25.88;14.85;;;;;;;3.52;57.82;100438.59;5102415;28;20032;-60
2021/04/28 03:51:01;;;;;;;29.08;15.73;;;;;;;3.53;57.87;100442.13;5104211;28;20031;-60
2021/04/28 03:53:26;;;;;;;28.33;15.98;;;;;;;3.58;57.99;100432.66;5100909;28;20107;-62
2021/04/28 03:55:52;;;;;;;29.33;15.57;;;;;;;3.55;57.97;100437.81;5104510;28;20488;-62
2021/04/28 03:58:17;;;;;;;30.40;16.38;;;;;;;3.52;57.69;100438.59;5101737;28;20028;-61
2021/04/28 04:00:42;;;;;;;26.60;15.40;;;;;;;3.47;58.11;100441.09;5103016;28;20039;-63
2021/04/28 04:03:08;;;;;;;30.80;15.77;;;;;;;3.41;58.26;100437.44;5103317;28;20031;-63
2021/04/28 04:05:33;;;;;;;28.65;15.88;;;;;;;3.38;58.23;100443.47;5102131;28;20027;-63
2021/04/28 04:07:58;;;;;;;30.77;15.65;;;;;;;3.40;58.10;100443.50;5108337;28;20023;-63
2021/04/28 04:10:24;;;;;;;28.02;14.70;;;;;;;3.49;56.97;100444.66;5104813;28;20054;-63
2021/04/28 04:12:49;;;;;;;27.25;15.68;;;;;;;3.46;58.35;100448.91;5107748;28;20072;-59
2021/04/28 04:15:14;;;;;;;27.50;15.82;;;;;;;3.42;58.28;100447.94;5105828;28;20035;-60
2021/04/28 04:17:40;;;;;;;27.25;15.98;;;;;;;3.43;58.35;100444.47;5106541;28;20024;-60
2021/04/28 04:20:06;;;;;;;26.38;16.25;;;;;;;3.38;58.65;100446.09;5107251;28;20019;-60
2021/04/28 04:22:32;;;;;;;27.73;15.93;;;;;;;3.44;58.27;100446.25;5105119;28;20028;-59
2021/04/28 04:24:57;;;;;;;29.48;16.77;;;;;;;3.38;58.47;100435.63;5107907;28;20027;-59
2021/04/28 04:27:23;;;;;;;31.55;16.42;;;;;;;3.40;58.50;100444.38;5100082;28;20028;-60
2021/04/28 04:29:48;;;;;;;29.35;16.65;;;;;;;3.47;58.60;100441.09;5106880;28;20024;-60
2021/04/28 04:32:13;;;;;;;31.60;16.83;;;;;;;3.40;58.65;100449.63;5105116;28;20027;-60
2021/04/28 04:34:39;;;;;;;32.80;16.73;;;;;;;3.51;58.62;100443.78;5105739;28;20024;-60
2021/04/28 04:37:04;;;;;;;33.20;17.98;;;;;;;3.51;58.85;100443.78;5107002;28;20023;-60
2021/04/28 04:39:30;;;;;;;31.17;16.98;;;;;;;3.61;58.82;100437.94;5104281;28;20020;-60
2021/04/28 04:41:55;;;;;;;30.30;16.10;;;;;;;3.66;58.55;100439.84;5107572;28;20016;-60
2021/04/28 04:44:21;;;;;;;28.38;16.45;;;;;;;3.62;58.55;100444.97;5104395;28;20024;-60
2021/04/28 04:46:46;;;;;;;33.25;17.08;;;;;;;3.63;58.86;100450.22;5106483;28;20020;-60
2021/04/28 04:49:11;;;;;;;28.73;16.58;;;;;;;3.69;59.21;100441.66;5105496;28;20038;-60
2021/04/28 04:51:37;;;;;;;29.48;16.17;;;;;;;3.89;58.76;100441.28;5105226;28;20034;-60
2021/04/28 04:54:02;;;;;;;28.30;16.70;;;;;;;3.90;58.95;100445.66;5106925;28;20028;-60
2021/04/28 04:56:28;;;;;;;29.08;16.83;;;;;;;3.98;59.42;100428.44;5103996;28;20024;-60
2021/04/28 04:58:53;;;;;;;29.58;16.60;;;;;;;4.06;59.74;100432.09;5098865;28;20386;-60
2021/04/28 05:01:18;;;;;;;29.30;16.17;;;;;;;4.17;58.06;100430.66;5106667;28;20020;-61
2021/04/28 05:03:44;;;;;;;28.10;16.00;;;;;;;4.31;58.13;100420.50;5104888;28;20031;-59
2021/04/28 05:06:10;;;;;;;30.88;16.52;;;;;;;4.42;57.47;100425.97;5105388;28;20058;-60
2021/04/28 05:08:35;;;;;;;27.10;15.73;;;;;;;4.51;57.26;100423.59;5106182;28;20024;-60
2021/04/28 05:11:01;;;;;;;27.58;15.90;;;;;;;4.62;57.00;100428.19;5103896;28;20168;-59
2021/04/28 05:13:26;;;;;;;28.60;15.85;;;;;;;4.73;56.62;100434.50;5102202;28;20036;-59
2021/04/28 05:15:51;;;;;;;28.45;15.68;;;;;;;4.82;56.10;100434.72;5103095;28;20036;-59
2021/04/28 05:18:17;;;;;;;26.90;15.82;;;;;;;4.93;56.00;100434.06;5098952;28;20088;-60
2021/04/28 05:20:42;;;;;;;29.50;16.27;;;;;;;5.05;56.05;100424.72;5102560;28;20382;-61
2021/04/28 05:23:07;;;;;;;30.20;16.35;;;;;;;5.07;56.50;100417.75;5096621;28;20028;-62
2021/04/28 05:25:33;;;;;;;28.50;15.63;;;;;;;5.12;55.83;100430.09;5099110;28;20028;-62
2021/04/28 05:27:59;;;;;;;28.77;15.65;;;;;;;5.11;56.28;100429.22;5098968;27;20055;-61
2021/04/28 05:30:24;;;;;;;28.52;16.48;;;;;;;5.11;56.27;100437.06;5099783;28;20057;-61
2021/04/28 05:32:50;;;;;;;27.38;16.52;;;;;;;5.04;56.85;100446.53;5101407;27;20027;-60
2021/04/28 05:35:15;;;;;;;30.77;16.35;;;;;;;5.01;56.93;100440.31;5097696;28;20024;-60
2021/04/28 05:37:41;;;;;;;28.33;16.52;;;;;;;4.95;56.62;100448.06;5103960;28;20120;-62
2021/04/28 05:40:08;;;;;;;32.25;17.20;;;;;;;4.92;56.75;100443.63;5098555;28;20486;-61
2021/04/28 05:42:34;;;;;;;29.17;17.20;;;;;;;4.93;57.15;100445.41;5102010;28;20382;-60
2021/04/28 05:44:59;;;;;;;29.52;17.42;;;;;;;4.96;56.98;100450.72;5101330;28;20035;-60
2021/04/28 05:47:25;;;;;;;31.15;16.83;;;;;;;4.99;56.35;100449.91;5098728;28;20031;-61
2021/04/28 05:49:51;;;;;;;29.58;17.23;;;;;;;4.97;56.78;100454.25;5104606;28;20028;-60
2021/04/28 05:52:16;;;;;;;27.83;17.30;;;;;;;5.03;56.88;100446.50;5096983;28;20051;-60
2021/04/28 05:54:41;;;;;;;29.95;18.30;;;;;;;5.06;57.29;100443.94;5104816;28;20035;-60
2021/04/28 05:57:09;;;;;;;29.65;17.35;;;;;;;5.05;57.77;100443.06;5102229;28;20072;-61
2021/04/28 05:59:34;;;;;;;29.73;18.05;;;;;;;5.17;56.90;100439.81;5097637;28;20038;-59
2021/04/28 06:01:59;;;;;;;27.42;17.05;;;;;;;5.26;57.22;100439.09;5092894;28;20024;-60
2021/04/28 06:04:25;;;;;;;28.17;18.00;;;;;;;5.41;56.13;100436.75;5095302;28;20371;-59
2021/04/28 06:06:50;;;;;;;30.02;16.92;;;;;;;5.56;55.32;100435.28;5091309;28;20031;-59
2021/04/28 06:09:17;;;;;;;30.52;17.10;;;;;;;5.76;55.24;100447.00;5092924;28;20032;-60
2021/04/28 06:11:42;;;;;;;30.67;17.92;;;;;;;5.92;54.27;100442.03;5093662;28;20526;-60
2021/04/28 06:14:08;;;;;;;31.10;17.75;;;;;;;6.04;54.84;100439.66;5100035;28;20039;-60
2021/04/28 06:16:33;;;;;;;29.70;18.05;;;;;;;6.05;54.65;100422.16;5101692;28;20054;-59
2021/04/28 06:18:58;;;;;;;30.38;18.00;;;;;;;6.08;53.76;100430.09;5104526;28;20114;-59
2021/04/28 06:21:24;;;;;;;32.65;17.85;;;;;;;6.14;54.27;100424.94;5102880;28;20035;-58
2021/04/28 06:23:49;;;;;;;30.65;17.45;;;;;;;6.19;54.48;100431.16;5101894;28;20028;-61
2021/04/28 06:26:16;;;;;;;30.80;18.25;;;;;;;6.27;54.02;100424.25;5102576;28;20157;-62
2021/04/28 06:28:42;;;;;;;31.27;18.20;;;;;;;6.36;53.76;100427.88;5100050;28;20051;-60
2021/04/28 06:31:07;;;;;;;31.77;18.65;;;;;;;6.47;53.56;100425.44;5101972;28;20482;-61
2021/04/28 06:33:33;;;;;;;30.60;17.52;;;;;;;6.65;53.14;100428.28;5098270;27;20024;-61
2021/04/28 06:35:58;;;;;;;32.13;18.63;;;;;;;6.74;52.89;100436.31;5102774;28;20031;-62
2021/04/28 06:38:24;;;;;;;30.83;18.55;;;;;;;6.87;53.54;100425.97;5099619;28;20028;-63
2021/04/28 06:40:49;;;;;;;29.48;17.88;;;;;;;6.95;51.86;100433.06;5102626;28;20054;-62
2021/04/28 06:43:15;;;;;;;29.27;17.48;;;;;;;7.11;52.24;100435.91;5101404;28;20032;-61
2021/04/28 06:45:40;;;;;;;32.20;18.02;;;;;;;7.15;51.61;100433.31;5098347;28;20032;-61
2021/04/28 06:48:07;;;;;;;29.33;17.30;;;;;;;7.34;51.72;100430.91;5097866;28;20096;-60
2021/04/28 06:50:32;;;;;;;31.70;17.85;;;;;;;7.49;51.40;100419.66;5096352;28;20066;-61
2021/04/28 06:52:58;;;;;;;30.33;17.88;;;;;;;7.63;50.96;100418.06;5098572;28;20115;-62
2021/04/28 06:55:24;;;;;;;29.98;18.00;;;;;;;7.83;50.93;100413.00;5097574;28;21378;-61
2021/04/28 06:57:56;;;;;;;30.88;17.05;;;;;;;8.01;50.32;100412.25;5095101;28;20043;-61
2021/04/28 07:00:27;;;;;;;29.52;17.95;;;;;;;8.23;49.65;100419.41;5092490;28;20386;-61
2021/04/28 07:02:56;;;;;;;30.42;17.67;;;;;;;8.36;49.84;100419.53;5092853;28;20028;-62
2021/04/28 07:05:23;;;;;;;29.17;16.52;;;;;;;8.56;49.86;100424.06;5091755;28;20028;-61
2021/04/28 07:07:48;;;;;;;30.33;16.80;;;;;;;8.61;49.70;100422.34;5090932;28;20024;-59
2021/04/28 07:10:15;;;;;;;30.52;17.60;;;;;;;8.65;49.45;100426.75;5092876;28;20458;-60
2021/04/28 07:12:40;;;;;;;30.17;17.38;;;;;;;8.71;48.46;100418.88;5089374;28;20048;-60
2021/04/28 07:15:06;;;;;;;31.13;16.88;;;;;;;8.85;48.44;100425.97;5097365;28;20363;-60
2021/04/28 07:17:33;;;;;;;30.42;16.73;;;;;;;9.13;47.93;100416.44;5098669;28;20486;-60
2021/04/28 07:19:59;;;;;;;30.30;17.35;;;;;;;9.52;47.16;100413.88;5099319;28;20474;-60
2021/04/28 07:22:24;;;;;;;28.40;16.73;;;;;;;9.83;45.58;100413.91;5095127;28;20056;-60
2021/04/28 07:24:50;;;;;;;28.77;16.73;;;;;;;10.22;46.09;100415.69;5091986;28;20020;-59
2021/04/28 07:27:15;;;;;;;27.63;16.02;;;;;;;10.43;45.80;100414.78;5095951;28;20398;-60
2021/04/28 07:29:41;;;;;;;30.83;16.85;;;;;;;10.53;44.59;100407.75;5098206;28;20035;-60
2021/04/28 07:32:06;;;;;;;31.92;16.70;;;;;;;10.61;43.98;100413.88;5095239;28;20028;-60
2021/04/28 07:34:31;;;;;;;30.67;17.30;;;;;;;10.66;44.14;100407.69;5096519;28;20030;-60
2021/04/28 07:36:57;;;;;;;30.90;16.98;;;;;;;10.76;43.81;100409.41;5103620;28;20528;-59
2021/04/28 07:39:22;;;;;;;29.80;16.90;;;;;;;10.98;44.32;100403.19;5102360;28;20162;-60
2021/04/28 07:41:48;;;;;;;28.67;16.67;;;;;;;11.19;42.74;100413.66;5101037;28;20031;-59
2021/04/28 07:44:15;;;;;;;31.00;17.17;;;;;;;11.22;43.22;100400.41;5108919;28;20024;-59
2021/04/28 07:46:41;;;;;;;32.92;17.30;;;;;;;11.23;43.20;100399.53;5104327;28;20032;-59
2021/04/28 07:49:07;;;;;;;31.00;17.27;;;;;;;11.32;42.63;100396.84;5107812;28;20024;-59
2021/04/28 07:51:33;;;;;;;31.45;17.05;;;;;;;11.51;41.78;100390.53;5106288;28;20103;-61
2021/04/28 07:53:59;;;;;;;30.88;17.13;;;;;;;11.66;42.39;100396.59;5102535;28;20168;-60
2021/04/28 07:56:25;;;;;;;30.20;16.90;;;;;;;11.65;41.89;100394.88;5106750;28;20478;-60
2021/04/28 07:58:51;;;;;;;31.02;17.55;;;;;;;11.64;42.97;100393.97;5107394;28;20165;-61
2021/04/28 08:01:17;;;;;;;32.50;18.13;;;;;;;11.56;42.39;100387.84;5102904;28;20072;-61
2021/04/28 08:03:42;;;;;;;32.78;17.98;;;;;;;11.51;42.28;100390.53;5106155;28;20028;-61
2021/04/28 08:06:07;;;;;;;29.05;17.20;;;;;;;11.66;42.81;100393.97;5107432;28;20529;-62
2021/04/28 08:08:33;;;;;;;29.90;18.02;;;;;;;11.83;43.50;100381.47;5104232;28;20421;-61
2021/04/28 08:10:58;;;;;;;31.17;17.92;;;;;;;12.02;42.50;100389.28;5107334;28;20083;-61
2021/04/28 08:13:23;;;;;;;30.83;17.40;;;;;;;12.45;41.78;100385.34;5105084;28;20137;-62
2021/04/28 08:15:49;;;;;;;30.92;17.65;;;;;;;13.10;39.08;100384.59;5106306;28;20105;-61
2021/04/28 08:18:14;;;;;;;30.67;17.52;;;;;;;13.64;37.08;100379.41;5106698;28;20027;-60
2021/04/28 08:20:39;;;;;;;31.58;17.60;;;;;;;14.28;36.52;100379.22;5105606;28;20103;-62
2021/04/28 08:23:05;;;;;;;29.42;17.02;;;;;;;14.87;35.87;100370.13;5107702;27;20458;-62
2021/04/28 08:25:32;;;;;;;34.13;17.08;;;;;;;15.47;34.82;100377.66;5103463;28;20040;-62
2021/04/28 08:27:59;;;;;;;29.65;17.35;;;;;;;15.83;33.56;100367.06;5107446;28;20028;-63
2021/04/28 08:30:24;;;;;;;32.28;17.70;;;;;;;16.26;33.17;100373.06;5105254;28;20590;-61
2021/04/28 08:32:50;;;;;;;30.15;16.90;;;;;;;16.86;32.73;100365.19;5106453;28;20115;-61
2021/04/28 08:35:16;;;;;;;29.15;16.60;;;;;;;17.14;31.62;100357.28;5106156;28;20031;-62
2021/04/28 08:37:45;;;;;;;28.98;16.42;;;;;;;17.47;30.89;100364.28;5105065;28;20051;-62
2021/04/28 08:40:12;;;;;;;30.88;17.15;;;;;;;17.56;31.17;100361.31;5106701;28;20039;-62
2021/04/28 08:42:37;;;;;;;28.83;16.10;;;;;;;17.91;30.76;100356.63;5104289;28;20496;-63
2021/04/28 08:45:04;;;;;;;29.52;16.25;;;;;;;18.26;30.01;100360.78;5107482;28;20110;-62
2021/04/28 08:47:29;;;;;;;28.70;16.63;;;;;;;18.23;29.31;100354.66;5104032;28;20028;-62
2021/04/28 08:49:54;;;;;;;28.85;16.60;;;;;;;18.35;29.38;100356.91;5106532;28;20039;-63
2021/04/28 08:52:20;;;;;;;30.27;17.05;;;;;;;18.37;29.21;100364.88;5104801;28;20019;-62
2021/04/28 08:54:46;;;;;;;31.85;16.90;;;;;;;18.51;28.70;100354.56;5105507;28;20055;-61
2021/04/28 08:57:12;;;;;;;29.48;17.00;;;;;;;18.56;28.88;100357.91;5106505;28;20030;-62
2021/04/28 08:59:38;;;;;;;30.58;16.83;;;;;;;18.52;28.20;100350.94;5103874;28;20024;-61
2021/04/28 09:02:16;;;;;;;29.98;16.75;;;;;;;18.72;29.62;100358.22;5107294;27;20069;-61
2021/04/28 09:04:41;;;;;;;34.33;17.27;;;;;;;18.87;28.40;100353.28;5102382;28;20051;-61
2021/04/28 09:07:07;;;;;;;32.95;16.67;;;;;;;19.02;27.66;100341.97;5106709;28;20070;-62
2021/04/28 09:09:32;;;;;;;31.08;17.52;;;;;;;18.94;28.70;100352.09;5103804;28;20016;-62
2021/04/28 09:11:58;;;;;;;32.20;17.63;;;;;;;18.52;29.56;100345.56;5106622;28;20047;-63
2021/04/28 09:14:27;;;;;;;31.45;17.50;;;;;;;18.10;29.53;100351.53;5097896;28;20380;-62
2021/04/28 09:16:52;;;;;;;32.47;17.05;;;;;;;18.07;29.47;100346.28;5100987;27;20043;-63
2021/04/28 09:19:28;;;;;;;31.25;17.10;;;;;;;19.07;28.42;100336.44;5100962;28;20377;-60
2021/04/28 09:21:58;;;;;;;30.30;17.02;;;;;;;20.04;27.42;100340.56;5100395;28;20099;-60
2021/04/28 09:24:32;;;;;;;33.13;17.08;;;;;;;20.48;26.54;100337.72;5100874;28;20396;-59
2021/04/28 09:26:59;;;;;;;30.13;16.73;;;;;;;20.63;26.47;100336.16;5095061;28;20034;-59
2021/04/28 09:29:34;;;;;;;35.45;16.88;;;;;;;20.46;26.44;100331.56;5097652;28;20039;-59
2021/04/28 09:32:07;;;;;;;33.13;17.30;;;;;;;21.02;25.96;100326.34;5095836;28;20031;-59
2021/04/28 09:34:38;;;;;;;31.50;17.33;;;;;;;21.32;24.85;100321.34;5096665;28;20549;-59
2021/04/28 09:37:08;;;;;;;31.77;18.08;;;;;;;21.61;24.17;100323.56;5101181;28;20092;-59
2021/04/28 09:39:45;;;;;;;30.10;17.27;;;;;;;22.30;24.33;100311.94;5097453;28;20039;-61
2021/04/28 09:42:13;;;;;;;31.02;17.67;;;;;;;22.72;22.83;100320.53;5097852;28;20023;-61
2021/04/28 09:44:44;;;;;;;31.13;17.75;;;;;;;22.91;22.69;100315.84;5097745;28;20054;-61
2021/04/28 09:47:19;;;;;;;32.53;18.25;;;;;;;23.40;23.57;100314.06;5106479;28;20058;-62
2021/04/28 09:49:46;;;;;;;32.20;17.42;;;;;;;23.76;22.27;100313.72;5099966;28;20514;-60
2021/04/28 09:52:12;;;;;;;32.97;17.50;;;;;;;23.66;21.65;100308.03;5101381;28;20050;-60
2021/04/28 09:54:38;;;;;;;30.15;17.85;;;;;;;23.68;22.85;100311.50;5101587;28;20031;-59
2021/04/28 09:57:04;;;;;;;30.90;18.13;;;;;;;23.77;22.41;100303.81;5098224;28;20035;-60
2021/04/28 09:59:47;;;;;;;36.90;18.10;;;;;;;24.01;22.54;100307.78;5105208;28;20044;-59
2021/04/28 10:02:30;;;;;;;29.92;17.67;;;;;;;24.18;22.47;100298.66;5095636;28;20150;-59
2021/04/28 10:05:35;;;;;;;33.80;18.40;;;;;;;24.83;22.05;100293.78;5100797;28;20023;-60
2021/04/28 10:08:16;;;;;;;30.63;18.33;;;;;;;24.99;21.71;100293.66;5030358;28;20155;-61
2021/04/28 10:10:43;;;;;;;32.38;18.80;;;;;;;25.53;20.25;100298.28;5031069;28;20041;-59
2021/04/28 10:13:09;;;;;;;31.52;18.58;;;;;;;25.80;20.07;100297.38;5029344;28;20065;-60
2021/04/28 10:15:36;;;;;;;32.10;18.45;;;;;;;26.14;19.50;100287.84;5030426;28;20088;-61
2021/04/28 10:18:04;;;;;;;29.65;18.02;;;;;;;26.68;19.08;100285.88;5030130;28;20025;-61
2021/04/28 10:20:32;;;;;;;32.67;18.05;;;;;;;26.97;18.01;100286.50;5029819;28;20446;-60
2021/04/28 10:23:05;;;;;;;30.27;17.83;;;;;;;27.41;18.41;100282.34;5030866;28;20045;-60
2021/04/28 10:25:31;;;;;;;31.25;17.92;;;;;;;27.48;18.03;100280.91;5032379;28;20199;-62
2021/04/28 10:27:59;;;;;;;33.85;18.45;;;;;;;27.79;17.99;100281.28;5028868;28;20041;-61
2021/04/28 10:30:24;;;;;;;31.67;18.63;;;;;;;27.82;17.64;100272.88;5031086;28;20423;-62
2021/04/28 10:32:51;;;;;;;30.60;18.15;;;;;;;27.94;16.85;100283.78;5029566;28;20064;-61
2021/04/28 10:35:19;;;;;;;32.88;18.30;;;;;;;28.41;17.17;100267.47;5031962;28;20041;-62
2021/04/28 10:37:51;;;;;;;31.55;18.00;;;;;;;28.84;17.05;100273.06;5040423;28;20037;-62
2021/04/28 10:40:21;;;;;;;32.13;17.65;;;;;;;29.31;15.67;100272.88;5040536;28;20029;-62
2021/04/28 10:42:48;;;;;;;31.83;17.48;;;;;;;28.34;15.99;100264.41;5085252;28;20055;-61
2021/04/28 10:45:22;;;;;;;30.17;17.20;;;;;;;27.58;16.62;100261.19;5099485;28;20016;-61
2021/04/28 10:47:50;;;;;;;36.85;18.25;;;;;;;27.62;17.67;100257.28;5097539;28;20118;-61
2021/04/28 10:50:24;;;;;;;30.98;17.13;;;;;;;27.79;17.37;100261.41;5096650;28;20493;-62
2021/04/28 10:53:05;;;;;;;30.08;16.23;;;;;;;28.37;16.46;100261.44;5098523;28;20027;-61
2021/04/28 10:55:53;;;;;;;30.63;17.27;;;;;;;28.21;17.18;100252.75;5097645;28;20026;-61
2021/04/28 10:58:45;;;;;;;29.98;17.38;;;;;;;28.18;17.10;100257.44;5100054;28;20043;-61
2021/04/28 11:01:13;;;;;;;32.58;17.92;;;;;;;28.25;15.76;100251.53;5096477;28;20031;-62
2021/04/28 11:03:45;;;;;;;30.77;17.35;;;;;;;28.22;15.71;100246.34;5097094;28;20024;-61
2021/04/28 11:06:17;;;;;;;33.63;18.08;;;;;;;27.93;16.50;100252.19;5098845;28;20027;-61
2021/04/28 11:08:43;;;;;;;32.47;17.90;;;;;;;27.90;16.21;100242.44;5094507;28;20035;-62
2021/04/28 11:11:34;;;;;;;29.65;17.65;;;;;;;28.34;15.86;100234.50;5101573;28;20444;-61
2021/04/28 11:14:08;;;;;;;31.10;17.23;;;;;;;28.67;16.07;100235.50;5097306;28;20066;-62